TAF KCOT
METAR KCOT
KCOT 080253Z AUTO 11004KT 10SM CLR 16/05 A2997 RMK AO2 SLP145 T01560050 53017 ?
KCOT 080153Z AUTO 10006KT 10SM CLR 17/05 A2995 RMK AO2 SLP138 T01670050 ?
KCOT 080053Z AUTO 09003KT 10SM CLR 18/04 A2993 RMK AO2 SLP131 T01830044 ?
KCOT 072353Z AUTO 12003KT 10SM CLR 20/04 A2992 RMK AO2 SLP128 T02000044 10239 20194 55002 ?
KCOT 072253Z AUTO 15007KT 10SM CLR 23/04 A2991 RMK AO2 SLP124 T02280039
WC KCOT
WS KCOT
WV KCOT